Time;durP1;ratioP1;P1;durP2;ratioP2;P2;SDS_P1;SDS_P2;PMS_P1;PMS_P2;Temp;Humidity;BMP_temperature;BMP_pressure;BME280_temperature;BME280_humidity;BME280_pressure;Samples;Min_cycle;Max_cycle;Signal;HPM_P1;HPM_P2
2024/03/06 00:00:07;;;;;;;;;;;;;;;3.09;68.58;101280.66;107577;1255;107299;-67
2024/03/06 00:02:36;;;;;;;;;;;;;;;3.05;68.30;101280.33;107566;1254;107345;-68
2024/03/06 00:05:05;;;;;;;;;;;;;;;3.04;68.31;101280.20;107545;1254;97825;-67
2024/03/06 00:07:33;;;;;;;;;;;;;;;3.02;68.43;101279.95;107616;1251;97923;-67
2024/03/06 00:10:01;;;;;;;;;;;;;;;2.97;68.51;101276.63;107535;1255;111707;-69
2024/03/06 00:12:29;;;;;;;;;;;;;;;2.90;69.17;101279.26;107520;1257;108227;-69
2024/03/06 00:14:58;;;;;;;;;;;;;;;2.86;68.83;101277.73;107494;1251;107963;-69
2024/03/06 00:17:26;;;;;;;;;;;;;;;2.87;69.28;101276.41;107521;1254;97906;-69
2024/03/06 00:19:55;;;;;;;;;;;;;;;2.88;69.73;101277.77;107602;1255;97714;-71
2024/03/06 00:22:23;;;;;;;;;;;;;;;2.89;69.30;101280.19;107592;1254;112122;-67
2024/03/06 00:24:51;;;;;;;;;;;;;;;2.92;69.36;101278.98;107608;1256;109145;-69
2024/03/06 00:27:20;;;;;;;;;;;;;;;2.96;69.29;101277.60;107565;1255;108618;-66
2024/03/06 00:29:48;;;;;;;;;;;;;;;2.98;69.19;101278.02;107623;1254;97837;-67
2024/03/06 00:32:16;;;;;;;;;;;;;;;2.97;69.45;101275.39;107556;1256;97759;-68
2024/03/06 00:34:45;;;;;;;;;;;;;;;2.96;69.38;101277.56;107618;1254;111639;-68
2024/03/06 00:37:13;;;;;;;;;;;;;;;2.96;69.66;101281.14;107613;1254;107949;-68
2024/03/06 00:39:42;;;;;;;;;;;;;;;2.93;70.62;101286.20;107617;1254;107784;-68
2024/03/06 00:42:13;;;;;;;;;;;;;;;2.86;70.59;101285.67;107592;1256;97832;-68
2024/03/06 00:44:42;;;;;;;;;;;;;;;2.83;70.41;101286.16;107652;1254;97829;-68
2024/03/06 00:47:10;;;;;;;;;;;;;;;2.82;70.31;101288.16;107579;1255;112154;-70
2024/03/06 00:49:39;;;;;;;;;;;;;;;2.82;70.76;101286.19;107585;1255;108326;-70
2024/03/06 00:52:07;;;;;;;;;;;;;;;2.85;70.78;101285.20;107552;1257;107303;-69
2024/03/06 00:54:35;;;;;;;;;;;;;;;2.88;71.00;101290.39;107537;1255;97936;-72
2024/03/06 00:57:04;;;;;;;;;;;;;;;2.87;70.99;101291.48;107554;1254;98359;-69
2024/03/06 00:59:32;;;;;;;;;;;;;;;2.84;70.98;101292.16;107605;1254;111319;-67
2024/03/06 01:02:01;;;;;;;;;;;;;;;2.83;70.66;101292.72;107628;1254;108749;-68
2024/03/06 01:04:29;;;;;;;;;;;;;;;2.84;70.83;101294.80;107504;1257;108327;-66
2024/03/06 01:06:58;;;;;;;;;;;;;;;2.79;71.67;101294.34;107584;1253;97835;-67
2024/03/06 01:09:27;;;;;;;;;;;;;;;2.72;71.70;101293.80;107608;1254;97898;-66
2024/03/06 01:11:56;;;;;;;;;;;;;;;2.69;72.10;101290.38;107570;1256;112913;-67
2024/03/06 01:14:25;;;;;;;;;;;;;;;2.67;71.90;101292.60;107627;1254;108371;-67
2024/03/06 01:16:53;;;;;;;;;;;;;;;2.64;71.71;101291.47;107541;1251;108253;-68
2024/03/06 01:19:21;;;;;;;;;;;;;;;2.63;71.87;101300.41;107564;1251;97857;-68
2024/03/06 01:21:49;;;;;;;;;;;;;;;2.62;72.58;101300.43;107693;1250;97908;-69
2024/03/06 01:24:18;;;;;;;;;;;;;;;2.59;72.25;101301.30;107542;1251;111480;-69
2024/03/06 01:26:46;;;;;;;;;;;;;;;2.56;72.87;101300.17;107497;1251;108230;-70
2024/03/06 01:29:15;;;;;;;;;;;;;;;2.56;72.76;101297.02;107481;1254;108198;-68
2024/03/06 01:31:46;;;;;;;;;;;;;;;2.58;73.16;101293.55;107596;1254;98514;-67
2024/03/06 01:34:15;;;;;;;;;;;;;;;2.60;73.05;101300.33;107601;1254;97846;-69
2024/03/06 01:36:43;;;;;;;;;;;;;;;2.62;73.29;101299.19;107616;1255;112006;-68
2024/03/06 01:39:11;;;;;;;;;;;;;;;2.63;73.40;101302.50;107632;1254;108555;-68
2024/03/06 01:41:47;;;;;;;;;;;;;;;2.64;73.55;101302.46;107587;1254;109353;-67
2024/03/06 01:44:16;;;;;;;;;;;;;;;2.65;73.30;101299.08;107581;1251;97826;-68
2024/03/06 01:46:45;;;;;;;;;;;;;;;2.68;73.26;101298.93;107476;1251;97717;-68
2024/03/06 01:49:14;;;;;;;;;;;;;;;2.69;72.99;101299.41;107496;1251;111721;-68
2024/03/06 01:51:57;;;;;;;;;;;;;;;2.72;73.23;101299.48;107508;1251;107125;-71
2024/03/06 01:54:26;;;;;;;;;;;;;;;2.77;73.44;101304.37;107550;1251;105980;-69
2024/03/06 01:56:55;;;;;;;;;;;;;;;2.83;73.49;101301.95;107487;1251;97829;-71
2024/03/06 01:59:25;;;;;;;;;;;;;;;2.89;73.33;101300.59;107643;1255;97924;-68
2024/03/06 02:02:05;;;;;;;;;;;;;;;2.92;73.33;101298.85;107598;1254;110695;-69
2024/03/06 02:04:33;;;;;;;;;;;;;;;2.99;73.19;101294.43;107653;1256;107548;-68
2024/03/06 02:07:02;;;;;;;;;;;;;;;3.03;73.54;101294.23;107585;1254;107925;-68
2024/03/06 02:09:31;;;;;;;;;;;;;;;3.00;73.34;101294.79;107626;1254;97838;-68
2024/03/06 02:12:00;;;;;;;;;;;;;;;2.95;73.27;101298.38;107569;1254;97823;-68
2024/03/06 02:14:29;;;;;;;;;;;;;;;2.91;73.39;101296.60;107605;1253;111595;-69
2024/03/06 02:16:57;;;;;;;;;;;;;;;2.88;73.55;101302.94;107617;1254;107666;-67
2024/03/06 02:19:37;;;;;;;;;;;;;;;2.88;73.49;101300.30;107609;1254;108421;-68
2024/03/06 02:22:06;;;;;;;;;;;;;;;2.90;73.45;101302.84;107617;1253;97841;-67
2024/03/06 02:24:35;;;;;;;;;;;;;;;2.91;73.21;101305.97;107639;1254;97823;-73
2024/03/06 02:27:05;;;;;;;;;;;;;;;2.94;73.06;101300.02;107610;1256;111911;-70
2024/03/06 02:29:33;;;;;;;;;;;;;;;2.99;72.81;101299.05;107572;1256;108339;-70
2024/03/06 02:32:04;;;;;;;;;;;;;;;3.03;73.26;101299.21;107574;1251;107853;-72
2024/03/06 02:34:33;;;;;;;;;;;;;;;3.09;73.03;101296.98;107597;1253;97924;-71
2024/03/06 02:37:01;;;;;;;;;;;;;;;3.15;73.07;101300.04;107669;1253;98002;-69
2024/03/06 02:39:29;;;;;;;;;;;;;;;3.19;72.49;101302.36;107639;1257;112652;-68
2024/03/06 02:41:58;;;;;;;;;;;;;;;3.21;72.67;101299.04;107594;1254;106726;-68
2024/03/06 02:44:26;;;;;;;;;;;;;;;3.24;72.68;101299.62;107556;1254;107530;-68
2024/03/06 02:46:54;;;;;;;;;;;;;;;3.21;72.37;101297.80;107596;1254;97922;-70
2024/03/06 02:49:23;;;;;;;;;;;;;;;3.23;72.45;101298.05;107646;1250;97755;-67
2024/03/06 02:51:51;;;;;;;;;;;;;;;3.23;72.00;101298.27;107693;1251;111838;-68
2024/03/06 02:54:20;;;;;;;;;;;;;;;3.23;71.98;101295.59;107515;1251;107827;-68
2024/03/06 02:56:48;;;;;;;;;;;;;;;3.23;71.94;101298.80;107485;1254;107634;-68
2024/03/06 02:59:16;;;;;;;;;;;;;;;3.23;71.99;101298.96;107546;1251;97733;-68
2024/03/06 03:01:45;;;;;;;;;;;;;;;3.20;72.06;101301.43;107535;1253;97778;-68
2024/03/06 03:04:13;;;;;;;;;;;;;;;3.18;72.10;101310.58;107622;1253;112119;-70
2024/03/06 03:06:41;;;;;;;;;;;;;;;3.15;72.05;101311.94;107620;1254;107218;-71
2024/03/06 03:09:11;;;;;;;;;;;;;;;3.14;72.45;101315.18;107582;1254;108094;-72
2024/03/06 03:11:41;;;;;;;;;;;;;;;3.06;72.48;101316.25;107655;1253;97851;-70
2024/03/06 03:14:10;;;;;;;;;;;;;;;3.03;72.73;101316.56;107662;1254;97705;-69
2024/03/06 03:16:38;;;;;;;;;;;;;;;3.06;72.54;101310.94;107595;1254;111301;-69
2024/03/06 03:19:08;;;;;;;;;;;;;;;3.14;72.40;101311.99;107630;1254;108640;-69
2024/03/06 03:21:36;;;;;;;;;;;;;;;3.20;72.39;101309.76;107644;1256;108394;-68
2024/03/06 03:24:05;;;;;;;;;;;;;;;3.22;72.51;101313.70;107597;1254;99843;-68
2024/03/06 03:26:33;;;;;;;;;;;;;;;3.21;72.46;101317.15;107657;1254;99053;-68
2024/03/06 03:29:01;;;;;;;;;;;;;;;3.19;72.22;101315.27;107571;1254;113466;-68
2024/03/06 03:31:31;;;;;;;;;;;;;;;3.19;72.15;101314.77;107598;1254;107972;-68
2024/03/06 03:33:59;;;;;;;;;;;;;;;3.20;72.24;101314.69;107560;1255;108267;-69
2024/03/06 03:36:27;;;;;;;;;;;;;;;3.24;72.30;101317.88;107588;1254;99186;-68
2024/03/06 03:38:56;;;;;;;;;;;;;;;3.25;72.10;101317.27;107577;1253;99274;-69
2024/03/06 03:41:25;;;;;;;;;;;;;;;3.31;72.23;101315.95;107622;1254;112317;-73
2024/03/06 03:43:54;;;;;;;;;;;;;;;3.34;72.09;101317.92;107549;1254;108123;-73
2024/03/06 03:46:22;;;;;;;;;;;;;;;3.35;71.86;101318.06;107538;1251;108659;-70
2024/03/06 03:48:50;;;;;;;;;;;;;;;3.34;72.07;101319.52;107565;1251;99223;-69
2024/03/06 03:51:18;;;;;;;;;;;;;;;3.34;71.94;101322.90;107613;1251;99099;-69
2024/03/06 03:53:50;;;;;;;;;;;;;;;3.32;72.05;101322.29;107697;1251;112609;-68
2024/03/06 03:56:19;;;;;;;;;;;;;;;3.26;71.77;101323.98;107664;1251;108320;-67
2024/03/06 03:58:47;;;;;;;;;;;;;;;3.21;71.87;101334.70;107570;1254;107592;-67
2024/03/06 04:01:15;;;;;;;;;;;;;;;3.14;72.07;101335.71;107639;1257;99239;-68
2024/03/06 04:03:44;;;;;;;;;;;;;;;3.16;72.52;101337.98;107511;1251;99174;-68
2024/03/06 04:06:12;;;;;;;;;;;;;;;3.15;72.22;101342.93;107490;1251;112191;-69
2024/03/06 04:08:41;;;;;;;;;;;;;;;3.14;71.80;101342.47;107444;1251;108664;-71
2024/03/06 04:11:09;;;;;;;;;;;;;;;3.18;72.40;101346.88;107487;1251;110420;-72
2024/03/06 04:13:38;;;;;;;;;;;;;;;3.21;72.47;101344.96;107496;1251;99150;-71
2024/03/06 04:16:06;;;;;;;;;;;;;;;3.23;72.25;101348.22;107474;1251;99173;-73
2024/03/06 04:18:34;;;;;;;;;;;;;;;3.28;72.32;101342.48;107479;1251;112528;-73
2024/03/06 04:21:06;;;;;;;;;;;;;;;3.34;72.13;101343.29;107500;1250;108219;-70
2024/03/06 04:23:35;;;;;;;;;;;;;;;3.36;71.92;101344.60;107471;1254;107902;-69
2024/03/06 04:26:03;;;;;;;;;;;;;;;3.36;71.72;101347.59;107473;1254;99086;-69
2024/03/06 04:28:31;;;;;;;;;;;;;;;3.38;71.78;101351.23;107456;1254;99163;-68
2024/03/06 04:31:00;;;;;;;;;;;;;;;3.38;71.94;101354.77;107611;1252;112691;-67
2024/03/06 04:33:28;;;;;;;;;;;;;;;3.36;72.04;101360.55;107667;1254;106880;-69
2024/03/06 04:35:57;;;;;;;;;;;;;;;3.25;72.28;101359.14;107641;1254;107641;-69
2024/03/06 04:38:25;;;;;;;;;;;;;;;3.03;72.97;101360.36;107624;1253;99192;-71
2024/03/06 04:40:53;;;;;;;;;;;;;;;2.88;73.19;101356.43;107569;1256;99191;-72
2024/03/06 04:43:22;;;;;;;;;;;;;;;2.85;73.39;101354.63;107595;1254;112627;-72
2024/03/06 04:45:50;;;;;;;;;;;;;;;2.89;73.65;101355.68;107546;1253;106904;-74
2024/03/06 04:48:18;;;;;;;;;;;;;;;2.90;74.38;101354.91;107604;1253;106312;-73
2024/03/06 04:50:47;;;;;;;;;;;;;;;2.85;74.53;101361.36;107510;1251;99269;-72
2024/03/06 04:53:16;;;;;;;;;;;;;;;2.85;74.39;101359.09;107679;1251;99188;-69
2024/03/06 04:55:44;;;;;;;;;;;;;;;2.86;74.47;101362.92;107492;1251;112884;-71
2024/03/06 04:58:13;;;;;;;;;;;;;;;2.87;74.52;101362.33;107522;1251;108324;-68
2024/03/06 05:00:41;;;;;;;;;;;;;;;2.87;74.80;101363.73;107607;1254;108137;-69
2024/03/06 05:03:10;;;;;;;;;;;;;;;2.85;74.48;101364.38;107599;1254;99301;-66
2024/03/06 05:05:56;;;;;;;;;;;;;;;2.87;74.51;101364.11;107610;1254;99176;-67
2024/03/06 05:08:41;;;;;;;;;;;;;;;2.88;74.15;101365.64;107637;1254;113566;-69
2024/03/06 05:11:27;;;;;;;;;;;;;;;2.93;74.42;101369.14;107673;1254;107994;-70
2024/03/06 05:14:13;;;;;;;;;;;;;;;2.95;74.48;101371.33;107603;1256;108353;-70
2024/03/06 05:17:00;;;;;;;;;;;;;;;2.97;74.58;101374.09;107602;1253;99175;-71
2024/03/06 05:19:50;;;;;;;;;;;;;;;3.03;74.61;101370.61;107442;1253;99063;-71
2024/03/06 05:22:36;;;;;;;;;;;;;;;3.08;74.56;101374.63;107473;1254;112733;-74
2024/03/06 05:25:21;;;;;;;;;;;;;;;3.14;74.36;101375.79;107614;1253;108768;-70
2024/03/06 05:28:07;;;;;;;;;;;;;;;3.20;74.15;101381.37;107566;1254;108526;-69
2024/03/06 05:30:53;;;;;;;;;;;;;;;3.21;74.45;101389.09;107629;1254;99166;-69
2024/03/06 05:33:38;;;;;;;;;;;;;;;3.24;74.33;101392.48;107665;1254;99041;-69
2024/03/06 05:36:24;;;;;;;;;;;;;;;3.26;74.33;101397.02;107633;1254;113499;-69
2024/03/06 05:39:12;;;;;;;;;;;;;;;3.27;74.10;101396.83;107639;1254;108289;-67
2024/03/06 05:42:03;;;;;;;;;;;;;;;3.26;74.07;101401.80;107573;1251;107205;-71
2024/03/06 05:44:50;;;;;;;;;;;;;;;3.30;74.02;101404.48;107481;1251;99173;-73
2024/03/06 05:47:36;;;;;;;;;;;;;;;3.36;74.20;101398.66;107515;1254;99255;-72
2024/03/06 05:50:22;;;;;;;;;;;;;;;3.32;74.07;101402.38;107604;1251;113231;-70
2024/03/06 05:53:08;;;;;;;;;;;;;;;3.20;74.71;101401.75;107483;1256;108583;-73
2024/03/06 05:55:54;;;;;;;;;;;;;;;3.14;74.74;101401.29;107526;1251;107808;-75
2024/03/06 05:58:40;;;;;;;;;;;;;;;3.15;74.97;101400.19;107455;1251;99179;-73
2024/03/06 06:01:09;;;;;;;;;;;;;;;3.25;74.82;101398.14;107670;1251;99262;-68
2024/03/06 06:03:38;;;;;;;;;;;;;;;3.35;74.67;101396.23;107541;1251;113385;-75
2024/03/06 06:06:06;;;;;;;;;;;;;;;3.42;74.53;101397.52;107506;1251;108105;-69
2024/03/06 06:08:35;;;;;;;;;;;;;;;3.45;74.43;101395.73;107559;1251;108341;-68
2024/03/06 06:11:03;;;;;;;;;;;;;;;3.49;74.19;101399.80;107622;1254;99614;-67
2024/03/06 06:13:32;;;;;;;;;;;;;;;3.59;74.19;101399.48;107627;1252;99162;-68
2024/03/06 06:16:02;;;;;;;;;;;;;;;3.68;74.03;101400.33;107682;1253;112487;-69
2024/03/06 06:18:31;;;;;;;;;;;;;;;3.67;73.90;101402.47;107605;1252;108354;-69
2024/03/06 06:21:00;;;;;;;;;;;;;;;3.66;73.71;101409.28;107654;1254;108588;-70
2024/03/06 06:23:29;;;;;;;;;;;;;;;3.70;74.06;101409.05;107593;1256;99199;-69
2024/03/06 06:25:57;;;;;;;;;;;;;;;3.79;73.88;101409.15;107557;1254;99211;-73
2024/03/06 06:28:25;;;;;;;;;;;;;;;3.86;73.28;101407.24;107624;1254;113417;-74
2024/03/06 06:30:53;;;;;;;;;;;;;;;3.96;73.86;101408.50;107631;1253;107985;-75
2024/03/06 06:33:22;;;;;;;;;;;;;;;4.00;73.39;101416.44;107575;1256;108575;-74
2024/03/06 06:35:51;;;;;;;;;;;;;;;4.06;73.28;101417.39;107613;1253;99205;-72
2024/03/06 06:38:20;;;;;;;;;;;;;;;4.16;73.49;101417.45;107617;1254;99106;-71
2024/03/06 06:40:48;;;;;;;;;;;;;;;4.29;73.38;101418.52;107543;1251;111531;-70
2024/03/06 06:43:16;;;;;;;;;;;;;;;4.42;73.18;101419.69;107520;1251;107887;-70
2024/03/06 06:45:45;;;;;;;;;;;;;;;4.55;72.96;101420.74;107568;1251;108144;-72
2024/03/06 06:48:13;;;;;;;;;;;;;;;4.63;72.53;101420.70;107575;1253;100219;-69
2024/03/06 06:50:41;;;;;;;;;;;;;;;4.67;72.13;101415.65;107608;1254;99154;-68
2024/03/06 06:53:10;;;;;;;;;;;;;;;4.73;72.09;101423.90;107579;1254;113158;-69
2024/03/06 06:55:39;;;;;;;;;;;;;;;4.83;72.09;101419.45;107624;1253;107704;-70
2024/03/06 06:58:07;;;;;;;;;;;;;;;4.87;71.35;101425.98;107628;1254;108239;-74
2024/03/06 07:00:37;;;;;;;;;;;;;;;4.89;70.90;101419.64;107569;1253;99176;-77
2024/03/06 07:03:06;;;;;;;;;;;;;;;4.93;70.87;101420.84;107597;1253;99087;-76
2024/03/06 07:05:35;;;;;;;;;;;;;;;4.98;70.45;101420.57;107624;1254;112584;-78
2024/03/06 07:08:03;;;;;;;;;;;;;;;4.88;70.03;101422.70;107418;1254;107665;-77
2024/03/06 07:10:31;;;;;;;;;;;;;;;4.85;70.39;101420.59;107444;1254;105687;-75
2024/03/06 07:12:59;;;;;;;;;;;;;;;4.92;70.51;101417.39;107625;1253;99326;-70
2024/03/06 07:15:28;;;;;;;;;;;;;;;5.04;70.60;101424.36;107633;1254;99355;-68
2024/03/06 07:17:56;;;;;;;;;;;;;;;5.19;70.23;101422.09;107624;1255;111707;-73
2024/03/06 07:20:25;;;;;;;;;;;;;;;5.30;69.88;101423.64;107620;1254;108375;-69
2024/03/06 07:22:53;;;;;;;;;;;;;;;5.38;69.69;101424.09;107625;1251;107652;-67
2024/03/06 07:25:22;;;;;;;;;;;;;;;5.43;69.13;101425.60;107541;1250;99167;-71
2024/03/06 07:27:50;;;;;;;;;;;;;;;5.40;68.88;101428.23;107584;1251;99182;-73
2024/03/06 07:30:18;;;;;;;;;;;;;;;5.28;68.83;101433.17;107371;1251;113301;-65
2024/03/06 07:34:58;;;;;;;73.50;36.20;;;;;;;5.37;69.30;101438.20;104102;1292;636625;-72
2024/03/06 07:37:27;;;;;;;66.40;35.80;;;;;;;5.43;69.03;101438.38;106546;1267;94466;-72
2024/03/06 07:39:55;;;;;;;82.90;38.10;;;;;;;5.49;68.91;101438.91;106580;1265;94532;-72
2024/03/06 07:42:24;;;;;;;72.80;36.30;;;;;;;5.58;68.71;101435.40;106508;1266;106927;-73
2024/03/06 07:44:52;;;;;;;87.10;39.70;;;;;;;5.66;68.60;101439.41;106494;1266;107974;-73
2024/03/06 07:47:20;;;;;;;66.20;35.70;;;;;;;5.72;68.35;101442.65;107049;1258;107725;-69
2024/03/06 07:49:50;;;;;;;76.80;36.10;;;;;;;5.72;68.23;101444.61;107094;1254;94489;-69
2024/03/06 07:52:19;;;;;;;79.40;37.50;;;;;;;5.81;67.84;101447.11;107263;1254;94540;-72
2024/03/06 07:54:46;;;;;;;66.00;34.60;;;;;;;5.78;67.68;101442.10;107275;1253;94462;-69
2024/03/06 07:57:14;;;;;;;61.50;33.90;;;;;;;5.71;67.42;101442.52;107091;1254;107315;-69
2024/03/06 07:59:41;;;;;;;70.00;34.30;;;;;;;5.69;67.76;101439.80;107272;1254;108459;-68
2024/03/06 08:02:09;;;;;;;69.00;35.60;;;;;;;5.76;67.91;101443.29;107189;1259;95883;-68
2024/03/06 08:04:36;;;;;;;71.00;35.50;;;;;;;5.86;67.89;101442.19;107152;1254;95070;-68
2024/03/06 08:07:04;;;;;;;75.70;36.50;;;;;;;5.92;67.51;101441.13;107147;1254;95219;-67
2024/03/06 08:09:32;;;;;;;65.90;34.60;;;;;;;5.97;67.34;101446.72;106989;1254;110159;-68
2024/03/06 08:12:00;;;;;;;65.20;33.50;;;;;;;5.99;67.45;101444.30;107236;1254;108467;-70
2024/03/06 08:14:27;;;;;;;83.70;32.80;;;;;;;6.10;67.69;101448.29;107224;1256;95190;-72
2024/03/06 08:16:55;;;;;;;72.30;33.40;;;;;;;6.17;67.28;101449.67;107433;1253;95695;-72
2024/03/06 08:19:24;;;;;;;68.40;34.00;;;;;;;6.14;66.70;101452.15;107443;1253;109496;-72
2024/03/06 08:21:52;;;;;;;72.80;35.00;;;;;;;6.22;67.16;101449.02;107542;1253;106395;-72
2024/03/06 08:24:19;;;;;;;71.90;34.00;;;;;;;6.33;67.17;101446.58;107478;1253;109735;-72
2024/03/06 08:26:48;;;;;;;56.00;33.20;;;;;;;6.47;66.98;101446.98;107452;1258;95135;-71
2024/03/06 08:29:15;;;;;;;68.00;35.30;;;;;;;6.56;66.52;101449.13;107501;1253;95676;-70
2024/03/06 08:31:43;;;;;;;75.60;34.20;;;;;;;6.57;66.01;101450.11;107490;1255;110759;-69
2024/03/06 08:34:10;;;;;;;81.10;35.90;;;;;;;6.58;66.24;101447.61;107506;1253;95172;-70
2024/03/06 08:36:37;;;;;;;81.70;36.90;;;;;;;6.60;65.81;101447.13;107640;1253;95112;-70
2024/03/06 08:39:05;;;;;;;68.30;34.80;;;;;;;6.61;65.84;101440.98;107473;1253;95847;-70
2024/03/06 08:41:32;;;;;;;76.30;36.80;;;;;;;6.78;65.97;101445.46;107442;1251;95161;-69
2024/03/06 08:44:00;;;;;;;61.90;35.00;;;;;;;6.95;65.73;101447.69;107525;1251;95154;-67
2024/03/06 08:46:27;;;;;;;63.30;34.30;;;;;;;7.10;65.27;101451.68;107527;1252;110438;-68
2024/03/06 08:48:55;;;;;;;68.70;35.30;;;;;;;7.12;64.50;101451.79;107355;1257;95156;-70
2024/03/06 08:51:22;;;;;;;65.10;36.70;;;;;;;7.19;64.63;101448.63;107470;1253;95279;-72
2024/03/06 08:53:49;;;;;;;65.00;36.70;;;;;;;7.35;64.78;101449.22;107468;1252;95038;-74
2024/03/06 08:56:18;;;;;;;86.10;38.20;;;;;;;7.52;63.72;101450.67;107526;1253;95021;-72
2024/03/06 08:58:46;;;;;;;66.60;36.00;;;;;;;7.53;63.39;101447.55;107440;1253;109363;-72
2024/03/06 09:01:13;;;;;;;70.00;37.30;;;;;;;7.71;63.58;101448.88;107330;1257;95208;-71
2024/03/06 09:03:40;;;;;;;66.00;35.00;;;;;;;7.94;63.26;101445.02;107327;1253;95289;-70
2024/03/06 09:06:08;;;;;;;66.10;32.20;;;;;;;8.21;63.11;101440.20;107434;1252;95030;-66
2024/03/06 09:08:35;;;;;;;53.50;31.90;;;;;;;8.56;62.87;101441.09;107487;1252;95141;-68
2024/03/06 09:11:03;;;;;;;73.20;35.80;;;;;;;8.87;62.45;101433.56;107457;1257;95165;-68
2024/03/06 09:13:30;;;;;;;64.80;33.40;;;;;;;9.15;61.98;101434.83;107480;1253;108248;-66
2024/03/06 09:15:58;;;;;;;61.30;31.60;;;;;;;9.45;60.78;101434.96;107466;1256;95196;-67
2024/03/06 09:18:26;;;;;;;64.20;32.50;;;;;;;9.79;59.89;101435.17;107479;1253;95141;-64
2024/03/06 09:20:53;;;;;;;64.40;34.00;;;;;;;10.07;59.85;101434.14;107501;1253;95211;-66
2024/03/06 09:23:21;;;;;;;68.80;34.70;;;;;;;10.32;58.54;101433.17;107496;1253;95093;-68
2024/03/06 09:25:49;;;;;;;61.10;32.80;;;;;;;10.49;57.78;101433.88;107477;1253;109056;-69
2024/03/06 09:28:16;;;;;;;67.80;32.10;;;;;;;10.70;56.57;101433.66;107503;1253;95641;-74
2024/03/06 09:30:47;;;;;;;76.10;32.40;;;;;;;11.21;56.57;101432.16;107499;1252;95740;-72
2024/03/06 09:33:14;;;;;;;55.00;29.80;;;;;;;11.98;55.91;101429.08;107549;1253;109695;-72
2024/03/06 09:35:45;;;;;;;60.90;32.20;;;;;;;12.66;54.30;101427.13;107446;1253;109871;-73
2024/03/06 09:38:15;;;;;;;63.10;33.40;;;;;;;12.94;52.08;101426.65;107562;1256;106550;-75
2024/03/06 09:40:46;;;;;;;;;;;;;;;13.37;50.06;101425.17;107411;1253;95222;-72
2024/03/06 09:43:14;;;;;;;64.70;33.80;;;;;;;13.49;48.20;101421.63;107559;1253;95157;-69
2024/03/06 09:45:43;;;;;;;58.50;32.90;;;;;;;13.80;48.34;101425.15;107557;1253;95638;-69
2024/03/06 09:48:11;;;;;;;56.80;30.80;;;;;;;13.74;49.00;101417.95;107561;1253;109237;-69
2024/03/06 09:50:46;;;;;;;65.10;32.50;;;;;;;13.83;49.28;101419.27;107485;1253;108697;-69
2024/03/06 09:53:16;;;;;;;62.30;33.00;;;;;;;14.12;48.87;101415.52;107604;1253;95238;-67
2024/03/06 09:55:47;;;;;;;62.70;32.40;;;;;;;14.37;48.22;101411.18;107556;1256;95039;-67
2024/03/06 09:58:14;;;;;;;64.70;29.50;;;;;;;14.46;47.92;101409.64;107553;1253;110276;-70
2024/03/06 10:00:42;;;;;;;54.10;30.70;;;;;;;14.85;47.34;101404.66;107623;1253;95178;-71
2024/03/06 10:03:11;;;;;;;61.80;27.80;;;;;;;15.56;47.03;101406.03;107538;1253;107131;-73
2024/03/06 10:05:38;;;;;;;48.80;26.10;;;;;;;16.40;46.23;101397.05;107607;1252;95110;-74
2024/03/06 10:08:06;;;;;;;59.70;28.40;;;;;;;16.78;43.86;101399.44;107587;1253;94918;-72
2024/03/06 10:10:33;;;;;;;56.50;27.00;;;;;;;16.77;41.53;101396.00;107595;1252;110329;-71
2024/03/06 10:13:01;;;;;;;45.30;24.20;;;;;;;16.96;40.11;101390.92;107553;1257;95202;-72
2024/03/06 10:15:29;;;;;;;41.40;23.00;;;;;;;17.44;38.33;101387.24;107409;1253;95052;-73
2024/03/06 10:18:18;;;;;;;40.20;19.80;;;;;;;17.91;37.81;101385.79;107404;1253;95291;-72
2024/03/06 10:20:46;;;;;;;42.20;21.10;;;;;;;18.44;38.82;101385.21;107482;1253;95204;-71
2024/03/06 10:23:15;;;;;;;41.60;22.10;;;;;;;19.04;37.88;101382.42;107416;1254;109797;-74
2024/03/06 10:25:54;;;;;;;37.20;21.00;;;;;;;19.33;35.29;101379.66;107427;1253;107719;-73
2024/03/06 10:28:23;;;;;;;40.30;19.70;;;;;;;19.83;34.39;101381.45;107411;1253;107439;-72
2024/03/06 10:30:52;;;;;;;33.90;16.00;;;;;;;20.33;35.22;101371.33;107480;1253;95317;-71
2024/03/06 10:33:19;;;;;;;31.10;14.70;;;;;;;21.01;33.77;101365.77;107534;1253;95220;-72
2024/03/06 10:35:48;;;;;;;28.30;13.40;;;;;;;21.45;31.10;101363.98;107556;1252;110393;-73
2024/03/06 10:38:16;;;;;;;27.00;12.70;;;;;;;21.73;30.39;101359.04;107614;1255;108018;-73
2024/03/06 10:40:44;;;;;;;24.00;12.30;;;;;;;21.90;29.30;101357.23;107565;1253;109456;-69
2024/03/06 10:43:12;;;;;;;28.50;14.00;;;;;;;22.26;30.80;101355.38;107535;1253;95199;-68
2024/03/06 10:45:50;;;;;;;29.00;11.50;;;;;;;22.68;30.00;101350.52;107638;1253;95083;-67
2024/03/06 10:48:19;;;;;;;31.90;12.50;;;;;;;22.83;27.98;101348.91;107554;1253;109443;-74
2024/03/06 10:50:49;;;;;;;24.90;10.80;;;;;;;23.22;29.54;101346.50;107455;1253;108977;-72
2024/03/06 10:53:18;;;;;;;25.00;11.80;;;;;;;23.67;27.61;101338.53;107462;1255;109702;-72
2024/03/06 10:55:51;;;;;;;31.80;11.30;;;;;;;23.88;27.73;101334.42;107419;1259;95181;-73
2024/03/06 10:58:20;;;;;;;21.20;11.30;;;;;;;24.11;25.81;101337.73;107425;1253;95183;-73
2024/03/06 11:00:48;;;;;;;24.00;10.70;;;;;;;24.08;25.73;101331.80;107487;1253;108586;-73
2024/03/06 11:03:17;;;;;;;22.10;10.90;;;;;;;23.65;24.70;101332.28;107526;1253;107675;-74
2024/03/06 11:05:50;;;;;;;42.50;11.20;;;;;;;22.59;26.12;101332.65;107448;1253;109914;-74
2024/03/06 11:08:19;;;;;;;20.40;10.80;;;;;;;21.86;27.34;101333.17;107402;1253;95264;-74
2024/03/06 11:10:47;;;;;;;42.50;11.90;;;;;;;21.14;27.22;101332.85;107397;1253;95020;-73
2024/03/06 11:13:22;;;;;;;51.10;12.30;;;;;;;20.52;28.01;101334.11;107414;1259;110005;-73
2024/03/06 11:15:54;;;;;;;30.10;11.60;;;;;;;19.92;27.97;101336.88;107459;1253;107713;-74
2024/03/06 11:18:36;;;;;;;28.00;12.30;;;;;;;19.25;28.24;101337.91;107410;1258;109777;-74
2024/03/06 11:21:04;;;;;;;26.50;12.00;;;;;;;18.52;28.99;101334.73;107502;1254;95126;-71
2024/03/06 11:23:31;;;;;;;26.00;12.60;;;;;;;18.08;29.57;101336.77;107426;1253;95078;-72
2024/03/06 11:26:08;;;;;;;35.60;11.80;;;;;;;17.70;29.50;101330.22;107460;1253;108171;-73
2024/03/06 11:28:38;;;;;;;24.10;12.40;;;;;;;17.30;29.82;101328.08;107422;1253;109864;-73
2024/03/06 11:31:18;;;;;;;30.50;12.80;;;;;;;17.01;30.32;101329.52;107424;1253;107458;-74
2024/03/06 11:33:52;;;;;;;28.70;12.60;;;;;;;16.83;30.81;101328.32;107375;1253;95215;-72
2024/03/06 11:36:28;;;;;;;20.60;11.70;;;;;;;16.94;31.45;101326.80;107380;1258;95650;-73
2024/03/06 11:39:00;;;;;;;31.70;12.90;;;;;;;17.28;30.70;101321.33;107426;1253;110417;-72
2024/03/06 11:41:47;;;;;;;27.60;13.00;;;;;;;17.60;30.35;101316.23;107432;1253;109610;-73
2024/03/06 11:44:16;;;;;;;21.00;10.80;;;;;;;18.03;30.62;101317.74;107391;1254;108584;-72
2024/03/06 11:46:49;;;;;;;23.00;10.90;;;;;;;18.34;29.25;101319.28;107458;1253;96606;-72
2024/03/06 11:49:28;;;;;;;30.90;12.40;;;;;;;18.32;29.39;101315.55;107347;1251;96393;-73
2024/03/06 11:51:57;;;;;;;23.20;10.20;;;;;;;18.12;30.16;101316.30;107684;1256;110188;-73
2024/03/06 11:54:29;;;;;;;33.80;12.30;;;;;;;18.01;30.33;101313.40;107696;1251;108229;-71
2024/03/06 11:56:58;;;;;;;26.40;10.10;;;;;;;17.87;29.90;101311.85;107587;1251;109734;-73
2024/03/06 11:59:29;;;;;;;24.80;9.60;;;;;;;17.60;29.54;101314.58;107673;1251;96518;-67
2024/03/06 12:02:02;;;;;;;22.90;9.90;;;;;;;17.29;29.53;101311.45;107743;1251;95590;-66
2024/03/06 12:04:33;;;;;;;23.20;10.70;;;;;;;16.95;30.28;101314.00;107564;1256;111692;-67
2024/03/06 12:07:07;;;;;;;37.90;11.20;;;;;;;16.83;30.86;101312.71;107620;1253;108650;-73
2024/03/06 12:09:37;;;;;;;30.70;11.00;;;;;;;16.85;30.96;101313.63;107455;1253;107984;-72